Time;durP1;ratioP1;P1;durP2;ratioP2;P2;SDS_P1;SDS_P2;PMS_P1;PMS_P2;Temp;Humidity;BMP_temperature;BMP_pressure;BME280_temperature;BME280_humidity;BME280_pressure;Samples;Min_cycle;Max_cycle;Signal;HPM_P1;HPM_P2
2023/04/19 00:00:51;;;;;;;0.20;0.20;;;9.90;99.90;;;;;;4978868;28;20102;-75
2023/04/19 00:03:23;;;;;;;0.30;0.30;;;9.90;99.90;;;;;;4981423;28;20030;-75
2023/04/19 00:05:49;;;;;;;0.20;0.20;;;8.30;99.90;;;;;;4983312;28;20058;-75
2023/04/19 00:08:14;;;;;;;0.20;0.20;;;9.90;99.90;;;;;;4982172;28;20022;-78
2023/04/19 00:10:41;;;;;;;0.20;0.20;;;9.90;99.90;;;;;;4979994;28;20088;-74
2023/04/19 00:13:07;;;;;;;0.20;0.20;;;10.00;99.90;;;;;;4977447;28;20015;-74
2023/04/19 00:15:33;;;;;;;0.20;0.20;;;10.00;99.90;;;;;;4958083;28;20038;-74
2023/04/19 00:18:02;;;;;;;0.20;0.20;;;10.00;99.90;;;;;;4960016;28;20043;-74
2023/04/19 00:20:28;;;;;;;0.20;0.20;;;10.00;99.90;;;;;;4970305;28;20121;-76
2023/04/19 00:22:53;;;;;;;0.30;0.30;;;10.00;99.90;;;;;;4966877;28;20034;-73
2023/04/19 00:25:19;;;;;;;0.50;0.50;;;9.90;99.90;;;;;;4964905;28;20039;-74
2023/04/19 00:27:45;;;;;;;0.10;0.10;;;9.80;99.90;;;;;;4969350;28;20045;-74
2023/04/19 00:30:11;;;;;;;0.10;0.10;;;11.20;99.90;;;;;;4967693;28;20022;-74
2023/04/19 00:32:37;;;;;;;0.20;0.20;;;9.90;99.90;;;;;;4969586;28;20030;-75
2023/04/19 00:35:03;;;;;;;0.20;0.20;;;9.90;99.90;;;;;;4969034;28;20027;-74
2023/04/19 00:37:29;;;;;;;0.17;0.17;;;9.90;99.90;;;;;;4967245;28;20497;-74
2023/04/19 00:39:54;;;;;;;0.20;0.20;;;9.80;99.90;;;;;;4969244;28;20050;-74
2023/04/19 00:42:20;;;;;;;7.80;7.43;;;9.80;99.90;;;;;;4968736;28;20054;-75
2023/04/19 00:44:46;;;;;;;0.10;0.10;;;9.80;99.90;;;;;;4952498;28;20066;-73
2023/04/19 00:47:13;;;;;;;0.10;0.10;;;9.90;99.90;;;;;;4970917;28;20039;-74
2023/04/19 00:49:39;;;;;;;0.30;0.30;;;9.90;99.90;;;;;;4973087;28;20089;-75
2023/04/19 00:52:07;;;;;;;0.25;0.25;;;9.90;99.90;;;;;;4974488;28;20027;-74
2023/04/19 00:54:33;;;;;;;0.20;0.20;;;10.00;99.90;;;;;;4974184;28;20109;-78
2023/04/19 00:57:00;;;;;;;0.20;0.20;;;10.00;99.90;;;;;;4974407;28;20031;-75
2023/04/19 00:59:26;;;;;;;0.20;0.20;;;9.90;99.90;;;;;;4973231;28;20054;-75
2023/04/19 01:01:52;;;;;;;0.20;0.20;;;9.90;99.90;;;;;;4973442;28;20023;-74
2023/04/19 01:04:18;;;;;;;0.20;0.20;;;10.00;99.90;;;;;;4972679;28;20022;-76
2023/04/19 01:06:44;;;;;;;0.20;0.20;;;9.80;99.90;;;;;;4968962;28;20392;-74
2023/04/19 01:09:10;;;;;;;0.20;0.20;;;10.00;99.90;;;;;;4955616;28;20152;-75
2023/04/19 01:11:35;;;;;;;0.20;0.20;;;9.70;99.90;;;;;;4974135;28;20046;-75
2023/04/19 01:14:02;;;;;;;0.60;0.60;;;;;;;;;;4975111;28;20110;-76
2023/04/19 01:16:30;;;;;;;0.20;0.20;;;9.60;99.90;;;;;;4967730;28;20034;-75
2023/04/19 01:18:56;;;;;;;0.10;0.10;;;9.60;99.90;;;;;;4945318;29;20038;-76
2023/04/19 01:21:22;;;;;;;0.17;0.17;;;9.60;99.90;;;;;;4947837;28;20039;-79
2023/04/19 01:23:48;;;;;;;0.20;0.20;;;9.70;99.90;;;;;;4967363;28;20034;-81
2023/04/19 01:26:15;;;;;;;0.20;0.20;;;9.70;99.90;;;;;;4951926;28;20751;-76
2023/04/19 01:28:41;;;;;;;0.20;0.20;;;9.70;99.90;;;;;;4973039;28;20027;-76
2023/04/19 01:31:06;;;;;;;0.20;0.20;;;9.70;99.90;;;;;;4971486;28;20019;-73
2023/04/19 01:33:32;;;;;;;0.20;0.20;;;9.70;99.90;;;;;;4969059;28;20320;-75
2023/04/19 01:35:58;;;;;;;0.20;0.20;;;9.70;99.90;;;;;;4967230;28;20113;-74
2023/04/19 01:38:24;;;;;;;0.20;0.20;;;9.70;99.90;;;;;;4966313;28;20026;-74
2023/04/19 01:40:49;;;;;;;0.20;0.20;;;9.70;99.90;;;;;;4966254;28;20533;-74
2023/04/19 01:43:16;;;;;;;0.30;0.30;;;9.80;99.90;;;;;;4965189;28;20019;-76
2023/04/19 01:45:42;;;;;;;0.30;0.30;;;9.80;99.90;;;;;;4966995;28;20026;-74
2023/04/19 01:48:08;;;;;;;0.20;0.20;;;9.80;99.90;;;;;;4966611;28;20061;-74
2023/04/19 01:50:34;;;;;;;0.20;0.20;;;9.80;99.90;;;;;;4977376;28;20648;-75
2023/04/19 01:53:00;;;;;;;0.20;0.20;;;9.80;99.90;;;;;;4955870;28;20065;-74
2023/04/19 01:55:25;;;;;;;0.10;0.10;;;9.80;99.90;;;;;;4952591;28;20022;-74
2023/04/19 01:57:54;;;;;;;0.32;0.32;;;9.80;99.90;;;;;;4973072;28;20087;-74
2023/04/19 02:00:21;;;;;;;1.10;1.10;;;11.50;99.90;;;;;;4968542;28;20038;-75
2023/04/19 02:02:48;;;;;;;0.20;0.20;;;9.80;99.90;;;;;;4969700;28;20023;-75
2023/04/19 02:05:14;;;;;;;0.20;0.20;;;9.80;99.90;;;;;;4975333;28;20101;-74
2023/04/19 02:07:40;;;;;;;0.10;0.10;;;9.80;99.90;;;;;;4955996;28;20111;-75
2023/04/19 02:10:10;;;;;;;0.20;0.20;;;9.80;99.90;;;;;;4975718;28;20051;-73
2023/04/19 02:12:36;;;;;;;0.20;0.20;;;9.80;99.90;;;;;;4976162;28;20027;-74
2023/04/19 02:15:03;;;;;;;2.05;1.95;;;9.80;99.90;;;;;;4968804;28;20404;-75
2023/04/19 02:17:29;;;;;;;0.13;0.13;;;9.80;99.90;;;;;;4970699;28;20019;-75
2023/04/19 02:19:55;;;;;;;0.20;0.20;;;9.80;99.90;;;;;;4968107;28;20248;-75
2023/04/19 02:22:21;;;;;;;0.10;0.10;;;9.80;99.90;;;;;;4968552;28;20429;-74
2023/04/19 02:24:50;;;;;;;0.20;0.20;;;9.80;99.90;;;;;;4968177;28;20023;-74
2023/04/19 02:27:16;;;;;;;0.30;0.30;;;9.80;99.90;;;;;;4969534;28;20035;-75
2023/04/19 02:29:43;;;;;;;0.28;0.28;;;8.40;99.90;;;;;;4969658;28;20029;-76
2023/04/19 02:32:10;;;;;;;0.10;0.10;;;10.90;99.90;;;;;;4971037;28;20027;-74
2023/04/19 02:34:36;;;;;;;0.28;0.28;;;9.80;99.90;;;;;;4955647;28;20061;-74
2023/04/19 02:37:02;;;;;;;0.20;0.20;;;9.80;99.90;;;;;;4973698;28;20236;-74
2023/04/19 02:39:28;;;;;;;0.20;0.20;;;9.70;99.90;;;;;;4961583;28;20035;-74
2023/04/19 02:41:55;;;;;;;0.20;0.20;;;9.70;99.90;;;;;;4970852;28;20026;-74
2023/04/19 02:44:21;;;;;;;0.13;0.13;;;9.70;99.90;;;;;;4968452;28;20030;-74
2023/04/19 02:46:51;;;;;;;0.20;0.20;;;9.70;99.90;;;;;;4965421;28;20038;-73
2023/04/19 02:49:17;;;;;;;0.30;0.30;;;9.80;99.90;;;;;;4971572;28;20025;-74
2023/04/19 02:51:43;;;;;;;0.15;0.15;;;9.70;99.90;;;;;;4971013;28;20027;-75
2023/04/19 02:54:10;;;;;;;0.20;0.20;;;9.70;99.90;;;;;;4969935;28;20402;-73
2023/04/19 02:56:35;;;;;;;0.20;0.20;;;9.70;99.90;;;;;;4969645;28;20015;-76
2023/04/19 02:59:02;;;;;;;0.20;0.20;;;9.70;99.90;;;;;;4953903;28;20121;-74
2023/04/19 03:01:28;;;;;;;0.20;0.20;;;9.80;99.90;;;;;;4971468;28;20027;-76
2023/04/19 03:03:54;;;;;;;0.20;0.20;;;9.80;99.90;;;;;;4954748;28;20053;-75
2023/04/19 03:06:19;;;;;;;0.10;0.10;;;9.70;99.90;;;;;;4977025;28;20313;-76
2023/04/19 03:08:45;;;;;;;0.20;0.20;;;9.80;99.90;;;;;;4977517;28;20029;-74
2023/04/19 03:11:12;;;;;;;0.20;0.20;;;9.80;99.90;;;;;;4974685;28;20548;-75
2023/04/19 03:13:39;;;;;;;0.20;0.20;;;9.80;99.90;;;;;;4975730;28;20023;-74
2023/04/19 03:16:06;;;;;;;0.13;0.13;;;9.80;99.90;;;;;;4959206;28;20053;-74
2023/04/19 03:18:32;;;;;;;0.20;0.20;;;9.80;99.90;;;;;;4973525;28;20038;-78
2023/04/19 03:20:58;;;;;;;0.20;0.20;;;9.40;99.90;;;;;;4973985;28;20059;-74
2023/04/19 03:23:26;;;;;;;0.20;0.20;;;9.80;99.90;;;;;;4952995;28;20034;-75
2023/04/19 03:25:52;;;;;;;0.20;0.20;;;9.90;99.90;;;;;;4956093;28;20077;-75
2023/04/19 03:28:18;;;;;;;0.20;0.20;;;9.80;99.90;;;;;;4967768;28;20034;-74
2023/04/19 03:30:44;;;;;;;1.38;1.35;;;11.60;99.90;;;;;;4966897;28;20027;-74
2023/04/19 03:33:10;;;;;;;0.20;0.20;;;9.60;99.90;;;;;;4971923;28;20034;-75
2023/04/19 03:35:36;;;;;;;0.20;0.20;;;9.60;99.90;;;;;;4976027;28;20035;-75
2023/04/19 03:38:02;;;;;;;0.20;0.20;;;9.70;99.90;;;;;;4974328;28;20101;-74
2023/04/19 03:40:29;;;;;;;0.20;0.20;;;9.70;99.90;;;;;;4972418;28;20061;-77
2023/04/19 03:42:54;;;;;;;0.22;0.22;;;9.70;99.90;;;;;;4975262;28;20078;-77
2023/04/19 03:45:21;;;;;;;0.20;0.20;;;9.70;99.90;;;;;;4971127;28;20065;-75
2023/04/19 03:47:47;;;;;;;0.20;0.20;;;9.70;99.90;;;;;;4969414;28;20101;-79
2023/04/19 03:50:13;;;;;;;0.20;0.20;;;9.70;99.90;;;;;;4968636;28;20022;-76
2023/04/19 03:52:38;;;;;;;0.20;0.20;;;9.70;99.90;;;;;;4951372;28;20577;-75
2023/04/19 03:55:05;;;;;;;2.08;2.00;;;9.70;99.90;;;;;;4971585;28;20023;-77
2023/04/19 03:57:31;;;;;;;0.20;0.20;;;9.70;99.90;;;;;;4972919;28;20015;-75
2023/04/19 03:59:58;;;;;;;0.20;0.20;;;9.70;99.90;;;;;;4975284;28;20023;-73
2023/04/19 04:02:24;;;;;;;0.20;0.20;;;9.70;99.90;;;;;;4977400;28;20027;-78
2023/04/19 04:04:54;;;;;;;0.20;0.20;;;9.70;99.90;;;;;;4977922;28;20567;-76
2023/04/19 04:07:20;;;;;;;2.30;2.20;;;9.70;99.90;;;;;;4973133;28;20104;-75
2023/04/19 04:09:47;;;;;;;0.30;0.30;;;9.70;99.90;;;;;;4977529;28;20023;-74
2023/04/19 04:12:12;;;;;;;0.15;0.15;;;9.70;99.90;;;;;;4977215;28;20466;-75
2023/04/19 04:14:38;;;;;;;0.20;0.20;;;9.70;99.90;;;;;;4972739;28;20062;-74
2023/04/19 04:17:05;;;;;;;0.10;0.10;;;9.70;99.90;;;;;;4975555;28;20328;-77
2023/04/19 04:19:30;;;;;;;0.10;0.10;;;9.70;99.90;;;;;;4972176;28;20097;-74
2023/04/19 04:21:57;;;;;;;0.30;0.30;;;9.70;99.90;;;;;;4980219;28;20114;-77
2023/04/19 04:24:22;;;;;;;0.20;0.20;;;9.70;99.90;;;;;;4975350;28;20034;-77
2023/04/19 04:26:48;;;;;;;0.13;0.13;;;9.70;99.90;;;;;;4982250;28;20035;-75
2023/04/19 04:29:15;;;;;;;0.10;0.10;;;9.70;99.90;;;;;;4983612;28;20023;-77
2023/04/19 04:31:41;;;;;;;0.20;0.20;;;9.70;99.90;;;;;;4981663;28;20447;-75
2023/04/19 04:34:08;;;;;;;1.95;1.85;;;9.70;99.90;;;;;;4985197;28;20019;-75
2023/04/19 04:36:35;;;;;;;0.40;0.40;;;9.70;99.90;;;;;;4980223;28;20694;-76
2023/04/19 04:39:01;;;;;;;0.20;0.20;;;9.70;99.90;;;;;;4978223;28;20422;-76
2023/04/19 04:41:30;;;;;;;0.20;0.20;;;9.70;99.90;;;;;;4971729;28;20324;-75
2023/04/19 04:43:57;;;;;;;0.10;0.10;;;9.70;99.90;;;;;;4971477;28;20054;-74
2023/04/19 04:46:24;;;;;;;0.20;0.20;;;9.70;99.90;;;;;;4956272;28;20045;-77
2023/04/19 04:48:50;;;;;;;0.10;0.10;;;9.70;99.90;;;;;;4973619;28;20265;-73
2023/04/19 04:51:17;;;;;;;0.20;0.20;;;9.70;99.90;;;;;;4972706;28;20110;-74
2023/04/19 04:53:43;;;;;;;0.20;0.20;;;9.70;99.90;;;;;;4967545;28;20050;-75
2023/04/19 04:56:09;;;;;;;0.43;0.43;;;9.70;99.90;;;;;;4969947;28;20038;-74
2023/04/19 04:58:35;;;;;;;0.20;0.20;;;9.70;99.90;;;;;;4969807;28;20023;-76
2023/04/19 05:01:02;;;;;;;1.00;1.00;;;9.80;99.90;;;;;;4951700;28;20411;-76
2023/04/19 05:03:28;;;;;;;0.20;0.20;;;9.80;99.90;;;;;;4970923;28;20034;-74
2023/04/19 05:05:56;;;;;;;0.20;0.20;;;9.80;99.90;;;;;;4973979;28;20034;-73
2023/04/19 05:08:22;;;;;;;0.20;0.20;;;9.80;99.90;;;;;;4975803;28;20034;-75
2023/04/19 05:10:48;;;;;;;0.20;0.20;;;9.90;99.90;;;;;;4983115;28;20045;-75
2023/04/19 05:13:13;;;;;;;0.45;0.45;;;10.00;99.90;;;;;;4977283;28;20031;-78
2023/04/19 05:15:39;;;;;;;0.20;0.20;;;10.00;99.90;;;;;;4982400;28;20537;-74
2023/04/19 05:18:05;;;;;;;0.10;0.10;;;10.00;99.90;;;;;;4983688;28;20087;-75
2023/04/19 05:20:32;;;;;;;0.20;0.20;;;10.00;99.90;;;;;;4977760;28;20038;-74
2023/04/19 05:23:00;;;;;;;0.20;0.20;;;10.00;99.90;;;;;;4972746;28;20038;-75
2023/04/19 05:25:26;;;;;;;0.20;0.20;;;10.00;99.90;;;;;;4980904;28;20086;-74
2023/04/19 05:27:52;;;;;;;0.20;0.20;;;10.00;99.90;;;;;;4968880;28;20317;-73
2023/04/19 05:30:18;;;;;;;6.93;6.47;;;10.00;99.90;;;;;;4979703;28;20030;-76
2023/04/19 05:32:44;;;;;;;0.43;0.43;;;10.00;99.90;;;;;;4964596;28;20146;-74
2023/04/19 05:35:10;;;;;;;0.20;0.20;;;10.00;99.90;;;;;;4977788;28;20046;-74
2023/04/19 05:37:37;;;;;;;0.90;0.90;;;10.00;99.90;;;;;;4950852;28;20363;-73
2023/04/19 05:40:08;;;;;;;0.20;0.20;;;10.00;99.90;;;;;;4968204;28;20019;-73
2023/04/19 05:42:34;;;;;;;0.20;0.20;;;10.10;99.90;;;;;;4968682;28;20117;-74
2023/04/19 05:45:00;;;;;;;2.92;2.83;;;;;;;;;;4967649;28;20173;-74
2023/04/19 05:47:26;;;;;;;1.00;1.00;;;10.00;99.90;;;;;;4972432;28;20027;-74
2023/04/19 05:49:52;;;;;;;0.20;0.20;;;10.10;99.90;;;;;;4967296;28;20034;-74
2023/04/19 05:52:18;;;;;;;0.20;0.20;;;10.00;99.90;;;;;;4955016;28;20058;-74
2023/04/19 05:54:44;;;;;;;0.20;0.20;;;;;;;;;;4972542;28;20336;-74
2023/04/19 05:57:09;;;;;;;0.20;0.20;;;9.90;99.90;;;;;;4973163;28;20058;-74
2023/04/19 05:59:35;;;;;;;0.28;0.28;;;9.90;99.90;;;;;;4974941;28;20027;-74
2023/04/19 06:02:01;;;;;;;0.28;0.28;;;9.90;99.90;;;;;;4973431;28;20731;-74
2023/04/19 06:04:27;;;;;;;0.25;0.25;;;9.90;99.90;;;;;;4973494;28;20032;-74
2023/04/19 06:06:53;;;;;;;0.30;0.30;;;;;;;;;;4969839;28;20047;-74
2023/04/19 06:09:19;;;;;;;0.28;0.28;;;9.90;99.90;;;;;;4970954;28;20524;-74
2023/04/19 06:11:46;;;;;;;0.20;0.20;;;;;;;;;;4968531;28;20076;-75
2023/04/19 06:14:12;;;;;;;0.52;0.52;;;9.90;99.90;;;;;;4968120;28;20025;-76
2023/04/19 06:16:39;;;;;;;0.20;0.20;;;9.90;99.90;;;;;;4967475;28;20102;-80
2023/04/19 06:19:06;;;;;;;0.20;0.20;;;9.90;99.90;;;;;;4969143;28;20197;-74
2023/04/19 06:21:33;;;;;;;0.13;0.13;;;10.10;99.90;;;;;;4954302;28;20057;-74
2023/04/19 06:24:00;;;;;;;0.20;0.20;;;9.90;99.90;;;;;;4952983;28;20046;-74
2023/04/19 06:26:26;;;;;;;0.20;0.20;;;9.80;99.90;;;;;;4970083;28;20018;-73
2023/04/19 06:28:52;;;;;;;0.30;0.30;;;9.80;99.90;;;;;;4971452;28;20027;-74
2023/04/19 06:31:17;;;;;;;0.10;0.10;;;9.80;99.90;;;;;;4954135;28;20386;-74
2023/04/19 06:33:44;;;;;;;0.20;0.20;;;;;;;;;;4951934;28;20232;-74
2023/04/19 06:36:10;;;;;;;0.20;0.20;;;9.70;99.90;;;;;;4972673;28;20034;-75
2023/04/19 06:38:40;;;;;;;0.20;0.20;;;;;;;;;;4973424;28;20027;-76
2023/04/19 06:41:06;;;;;;;0.10;0.10;;;9.80;99.90;;;;;;4979910;28;20220;-75
2023/04/19 06:43:32;;;;;;;0.20;0.20;;;9.80;99.90;;;;;;4978565;28;20083;-77
2023/04/19 06:45:59;;;;;;;0.20;0.20;;;9.80;99.90;;;;;;4957199;28;20538;-75
2023/04/19 06:48:26;;;;;;;0.20;0.20;;;9.80;99.90;;;;;;4977109;28;20023;-78
2023/04/19 06:50:52;;;;;;;0.20;0.20;;;9.70;99.90;;;;;;4969328;28;20015;-75
2023/04/19 06:53:18;;;;;;;0.20;0.20;;;9.80;99.90;;;;;;4965842;28;20042;-74
2023/04/19 06:55:44;;;;;;;0.20;0.20;;;9.70;99.90;;;;;;4949853;28;20027;-74
2023/04/19 06:58:10;;;;;;;0.20;0.20;;;9.70;99.90;;;;;;4966169;28;20026;-75
2023/04/19 07:00:36;;;;;;;0.10;0.10;;;9.70;99.90;;;;;;4965978;28;20019;-74
2023/04/19 07:03:02;;;;;;;0.20;0.20;;;9.80;99.90;;;;;;4965332;28;20023;-75
2023/04/19 07:05:29;;;;;;;1.00;0.95;;;9.80;99.90;;;;;;4948416;28;20228;-75
2023/04/19 07:07:55;;;;;;;0.20;0.20;;;9.90;99.90;;;;;;4948195;28;20564;-78
2023/04/19 07:10:21;;;;;;;0.10;0.10;;;10.00;99.90;;;;;;4964384;28;20030;-76
2023/04/19 07:12:47;;;;;;;16.05;15.02;;;10.00;99.90;;;;;;4965730;28;20058;-75
2023/04/19 07:15:13;;;;;;;0.17;0.17;;;10.10;99.90;;;;;;4969250;28;20081;-74
2023/04/19 07:17:39;;;;;;;0.20;0.20;;;10.20;99.90;;;;;;4970929;28;20053;-75
2023/04/19 07:20:05;;;;;;;0.43;0.43;;;10.10;99.90;;;;;;4969683;28;20042;-74
2023/04/19 07:22:32;;;;;;;0.68;0.68;;;10.20;99.90;;;;;;4969648;28;20490;-75
2023/04/19 07:24:58;;;;;;;0.20;0.20;;;9.70;99.90;;;;;;4968590;28;20023;-75
2023/04/19 07:27:24;;;;;;;0.20;0.20;;;10.30;99.90;;;;;;4964967;28;20031;-74
2023/04/19 07:29:51;;;;;;;0.20;0.20;;;10.30;99.90;;;;;;4964033;28;20027;-74
2023/04/19 07:32:16;;;;;;;0.20;0.20;;;10.60;99.90;;;;;;4965297;28;20276;-75
2023/04/19 07:34:42;;;;;;;0.20;0.20;;;10.40;99.90;;;;;;4946050;28;20031;-75
2023/04/19 07:37:08;;;;;;;0.10;0.10;;;10.30;99.90;;;;;;4946600;28;20033;-74
2023/04/19 07:39:34;;;;;;;0.22;0.22;;;10.40;99.90;;;;;;4946800;28;20080;-74
2023/04/19 07:42:00;;;;;;;0.10;0.10;;;;;;;;;;4947763;28;20638;-75
2023/04/19 07:44:26;;;;;;;0.20;0.20;;;10.30;99.90;;;;;;4948320;28;20031;-78
2023/04/19 07:46:52;;;;;;;0.20;0.20;;;10.30;99.90;;;;;;4947212;28;20322;-77
2023/04/19 07:49:18;;;;;;;0.30;0.30;;;10.30;99.90;;;;;;4967123;28;20106;-74
2023/04/19 07:51:44;;;;;;;0.20;0.20;;;;;;;;;;4966002;28;20557;-74
2023/04/19 07:54:10;;;;;;;0.32;0.32;;;10.40;99.90;;;;;;4966648;28;20118;-73
2023/04/19 07:56:36;;;;;;;0.20;0.20;;;10.30;99.90;;;;;;4966550;28;20046;-74
2023/04/19 07:59:02;;;;;;;0.17;0.17;;;10.30;99.90;;;;;;4963806;28;20106;-75
2023/04/19 08:01:28;;;;;;;0.10;0.10;;;10.40;99.90;;;;;;4963140;28;20185;-74
2023/04/19 08:03:54;;;;;;;2.25;2.15;;;10.50;99.90;;;;;;4962384;28;20681;-74
2023/04/19 08:06:20;;;;;;;6.90;6.53;;;7.90;99.90;;;;;;4960201;28;20066;-74
2023/04/19 08:08:47;;;;;;;0.15;0.15;;;10.30;99.90;;;;;;4956780;28;20074;-74
2023/04/19 08:11:12;;;;;;;0.20;0.20;;;10.30;99.90;;;;;;4962430;28;20023;-74
2023/04/19 08:13:38;;;;;;;0.20;0.20;;;10.20;99.90;;;;;;4962819;28;20030;-75
2023/04/19 08:16:05;;;;;;;0.20;0.20;;;10.20;99.90;;;;;;4963535;28;20518;-74
2023/04/19 08:18:31;;;;;;;0.17;0.17;;;10.20;99.90;;;;;;4962609;28;20497;-75
2023/04/19 08:20:57;;;;;;;0.20;0.20;;;10.20;99.90;;;;;;4966043;28;20080;-76
2023/04/19 08:23:23;;;;;;;0.20;0.20;;;10.20;99.90;;;;;;4964786;28;20023;-75
2023/04/19 08:25:49;;;;;;;0.20;0.20;;;10.20;99.90;;;;;;4962954;28;20055;-74
2023/04/19 08:28:16;;;;;;;0.20;0.20;;;10.20;99.90;;;;;;4962284;28;20054;-74
2023/04/19 08:30:42;;;;;;;0.20;0.20;;;10.20;99.90;;;;;;4963376;28;20125;-74
2023/04/19 08:33:08;;;;;;;0.20;0.20;;;10.30;99.90;;;;;;4946136;28;20550;-75
2023/04/19 08:35:35;;;;;;;0.20;0.20;;;10.30;99.90;;;;;;4964546;28;20023;-74
2023/04/19 08:38:01;;;;;;;0.20;0.20;;;10.30;99.90;;;;;;4946461;28;20109;-74
2023/04/19 08:40:29;;;;;;;1.15;1.15;;;10.40;99.90;;;;;;4961848;28;20027;-75
2023/04/19 08:42:56;;;;;;;0.30;0.30;;;10.30;99.90;;;;;;4961939;28;20481;-74
2023/04/19 08:45:27;;;;;;;0.20;0.20;;;10.40;99.90;;;;;;4962208;28;20022;-76
2023/04/19 08:47:54;;;;;;;1.70;1.67;;;10.40;99.90;;;;;;4963581;28;20065;-75
2023/04/19 08:50:23;;;;;;;0.10;0.10;;;10.40;99.90;;;;;;4965084;28;20038;-74
2023/04/19 08:52:49;;;;;;;0.20;0.20;;;12.10;99.90;;;;;;4963927;28;20093;-74
2023/04/19 08:55:15;;;;;;;6.25;5.78;;;10.60;99.90;;;;;;4963137;28;20027;-76
2023/04/19 08:57:41;;;;;;;0.20;0.20;;;10.70;99.90;;;;;;4963242;28;20486;-75
2023/04/19 09:00:10;;;;;;;0.20;0.20;;;10.80;99.90;;;;;;4963328;28;20031;-75
2023/04/19 09:02:53;;;;;;;0.20;0.20;;;10.80;99.90;;;;;;4964059;28;20022;-75
2023/04/19 09:05:20;;;;;;;0.10;0.10;;;10.60;99.90;;;;;;4963780;28;20033;-74
2023/04/19 09:07:46;;;;;;;0.52;0.52;;;10.90;99.90;;;;;;4964771;28;20027;-74
2023/04/19 09:10:17;;;;;;;0.80;0.80;;;10.90;99.90;;;;;;4947493;28;20042;-74
2023/04/19 09:13:02;;;;;;;0.10;0.10;;;10.90;99.90;;;;;;4964548;28;20085;-74
2023/04/19 09:15:37;;;;;;;2.33;2.17;;;11.00;99.90;;;;;;4963894;28;20042;-74
2023/04/19 09:18:08;;;;;;;0.20;0.20;;;10.90;99.90;;;;;;4956945;28;20036;-74
2023/04/19 09:20:44;;;;;;;0.20;0.20;;;10.90;99.90;;;;;;4945619;28;20039;-73
2023/04/19 09:23:15;;;;;;;0.20;0.20;;;10.90;99.90;;;;;;4960634;28;20019;-75
2023/04/19 09:26:03;;;;;;;0.30;0.30;;;10.80;99.90;;;;;;4961924;28;20023;-73
2023/04/19 09:28:30;;;;;;;0.20;0.20;;;12.30;99.90;;;;;;4963167;28;20034;-73
2023/04/19 09:30:56;;;;;;;0.90;0.90;;;10.60;99.90;;;;;;4959657;28;20019;-74
2023/04/19 09:33:38;;;;;;;0.20;0.20;;;10.50;99.90;;;;;;4960345;28;20019;-74
2023/04/19 09:36:05;;;;;;;0.73;0.73;;;10.80;99.90;;;;;;4964241;28;20031;-74
2023/04/19 09:38:48;;;;;;;1.95;1.92;;;10.30;99.90;;;;;;4960904;28;20034;-72
2023/04/19 09:41:13;;;;;;;0.20;0.20;;;10.50;99.90;;;;;;4977101;28;20023;-75
2023/04/19 09:43:39;;;;;;;0.65;0.65;;;10.60;99.90;;;;;;4976757;28;20029;-78
2023/04/19 09:46:05;;;;;;;0.30;0.30;;;10.60;99.90;;;;;;4965949;28;20026;-74
2023/04/19 09:48:31;;;;;;;2.65;2.55;;;10.40;99.90;;;;;;4964090;28;20027;-73
2023/04/19 09:50:59;;;;;;;0.20;0.20;;;10.40;99.90;;;;;;4964179;28;20023;-74
2023/04/19 09:53:26;;;;;;;0.20;0.20;;;10.30;99.90;;;;;;4967053;28;20030;-74
2023/04/19 09:55:53;;;;;;;0.10;0.10;;;10.40;99.90;;;;;;4963830;28;20038;-74
2023/04/19 09:58:19;;;;;;;1.60;1.60;;;10.50;99.90;;;;;;4964238;28;20041;-74
2023/04/19 10:00:46;;;;;;;0.20;0.20;;;10.50;99.90;;;;;;4965623;28;20102;-74
2023/04/19 10:03:14;;;;;;;0.20;0.20;;;10.60;99.90;;;;;;4966744;28;20034;-75
2023/04/19 10:05:41;;;;;;;0.20;0.20;;;10.70;99.90;;;;;;4964303;28;20027;-73
2023/04/19 10:08:07;;;;;;;0.20;0.20;;;10.90;99.90;;;;;;4972101;28;20043;-74
2023/04/19 10:10:35;;;;;;;0.20;0.20;;;10.90;99.90;;;;;;4974165;28;20470;-74
2023/04/19 10:13:05;;;;;;;0.20;0.20;;;10.90;99.90;;;;;;4972724;28;20037;-74
2023/04/19 10:15:31;;;;;;;0.20;0.20;;;11.10;99.90;;;;;;4973527;28;20083;-74
2023/04/19 10:17:58;;;;;;;0.20;0.20;;;11.10;99.90;;;;;;4972427;28;20022;-76
2023/04/19 10:20:32;;;;;;;0.20;0.20;;;11.10;99.90;;;;;;4982966;28;20081;-73
2023/04/19 10:22:59;;;;;;;0.20;0.20;;;11.20;99.90;;;;;;4966779;28;20026;-75
2023/04/19 10:25:29;;;;;;;0.20;0.20;;;13.00;99.90;;;;;;4986288;28;20019;-76
2023/04/19 10:27:56;;;;;;;0.10;0.10;;;11.30;99.90;;;;;;4982889;28;20034;-74
2023/04/19 10:30:27;;;;;;;0.30;0.30;;;11.40;99.90;;;;;;4993518;28;20019;-75
2023/04/19 10:33:06;;;;;;;0.20;0.20;;;11.50;99.90;;;;;;4988407;28;20034;-75
2023/04/19 10:35:37;;;;;;;0.20;0.20;;;11.60;99.90;;;;;;4989748;28;20078;-76
2023/04/19 10:38:15;;;;;;;0.13;0.13;;;11.70;99.90;;;;;;4987794;28;20049;-83
2023/04/19 10:40:50;;;;;;;0.10;0.10;;;11.80;99.90;;;;;;4983895;28;20543;-76
2023/04/19 10:43:16;;;;;;;0.20;0.20;;;12.10;99.90;;;;;;4984188;28;20106;-78
2023/04/19 10:45:42;;;;;;;0.10;0.10;;;12.00;99.90;;;;;;4985048;28;20030;-75
2023/04/19 10:48:36;;;;;;;0.20;0.20;;;12.10;99.90;;;;;;4985699;28;20029;-75
2023/04/19 10:51:26;;;;;;;0.10;0.10;;;12.00;99.90;;;;;;4980220;28;20031;-74
2023/04/19 10:53:59;;;;;;;0.47;0.47;;;11.90;99.90;;;;;;4875056;29;20032;-74
2023/04/19 10:57:17;;;;;;;0.20;0.20;;;10.90;99.90;;;;;;4890169;29;20728;-74
2023/04/19 10:59:43;;;;;;;0.20;0.20;;;12.50;99.90;;;;;;4830148;29;20034;-74
2023/04/19 11:02:21;;;;;;;0.17;0.17;;;11.90;99.90;;;;;;4829099;29;20225;-74
2023/04/19 11:04:49;;;;;;;0.30;0.30;;;11.90;99.90;;;;;;4814505;29;20037;-74
2023/04/19 11:07:22;;;;;;;0.77;0.77;;;11.90;99.90;;;;;;4813079;29;20044;-74
2023/04/19 11:09:50;;;;;;;0.20;0.20;;;11.90;99.90;;;;;;4828855;29;20038;-76
2023/04/19 11:12:18;;;;;;;1.20;1.20;;;12.00;99.90;;;;;;4830308;29;20061;-86
2023/04/19 11:14:52;;;;;;;0.20;0.20;;;12.10;99.90;;;;;;4828942;29;20026;-79
2023/04/19 11:17:18;;;;;;;;;;;12.30;99.90;;;;;;4829514;29;20388;-82
2023/04/19 11:20:10;;;;;;;0.10;0.10;;;12.40;99.90;;;;;;4829971;29;20571;-85
2023/04/19 11:22:38;;;;;;;0.20;0.20;;;12.40;99.90;;;;;;4832784;29;20034;-77
2023/04/19 11:25:07;;;;;;;0.20;0.20;;;12.30;99.90;;;;;;4816438;29;20034;-81
2023/04/19 11:27:34;;;;;;;0.10;0.10;;;12.20;99.90;;;;;;4832492;29;20045;-75
2023/04/19 11:30:21;;;;;;;0.50;0.50;;;12.20;99.90;;;;;;4839303;29;20191;-79
2023/04/19 11:32:52;;;;;;;2.22;2.13;;;12.30;99.90;;;;;;4903940;29;20801;-75
2023/04/19 11:35:23;;;;;;;0.20;0.20;;;12.30;99.90;;;;;;4914094;28;20084;-74
2023/04/19 11:37:49;;;;;;;0.20;0.20;;;12.40;99.90;;;;;;4983508;28;20022;-74
2023/04/19 11:40:16;;;;;;;0.20;0.20;;;12.40;99.90;;;;;;4985680;28;20015;-74
2023/04/19 11:42:42;;;;;;;0.20;0.20;;;12.40;99.90;;;;;;4981758;28;20097;-76
2023/04/19 11:45:22;;;;;;;0.15;0.15;;;12.40;99.90;;;;;;4981478;28;20022;-83
2023/04/19 11:47:49;;;;;;;0.10;0.10;;;12.70;99.90;;;;;;4963104;28;20035;-72
2023/04/19 11:50:34;;;;;;;3.20;3.03;;;12.80;99.90;;;;;;4981075;28;20109;-72
2023/04/19 11:53:16;;;;;;;0.17;0.17;;;13.20;99.90;;;;;;4980572;28;20054;-73
2023/04/19 11:55:53;;;;;;;0.10;0.10;;;13.40;99.90;;;;;;4963893;28;20145;-79
2023/04/19 11:58:31;;;;;;;0.20;0.20;;;13.70;99.90;;;;;;4982270;28;20029;-80
2023/04/19 12:01:18;;;;;;;0.75;0.75;;;14.00;99.90;;;;;;4981890;28;20026;-72
2023/04/19 12:03:46;;;;;;;0.52;0.52;;;13.80;99.90;;;;;;4981521;28;20355;-83
2023/04/19 12:06:25;;;;;;;0.10;0.10;;;14.00;99.90;;;;;;4981125;28;20579;-78
2023/04/19 12:08:53;;;;;;;0.10;0.10;;;14.10;99.90;;;;;;4982051;28;20480;-74
2023/04/19 12:11:22;;;;;;;0.10;0.10;;;14.10;99.90;;;;;;4981659;28;20069;-72
2023/04/19 12:14:06;;;;;;;0.77;0.77;;;14.20;99.90;;;;;;4979774;28;20030;-73
2023/04/19 12:16:31;;;;;;;0.10;0.10;;;14.40;99.90;;;;;;4965147;28;20528;-82
2023/04/19 12:18:57;;;;;;;0.20;0.20;;;14.60;99.90;;;;;;4962614;28;20074;-72
2023/04/19 12:21:31;;;;;;;0.10;0.10;;;14.70;99.90;;;;;;4980015;28;20346;-78
2023/04/19 12:23:59;;;;;;;0.10;0.10;;;14.70;99.90;;;;;;4962609;28;20085;-72
2023/04/19 12:26:27;;;;;;;0.10;0.10;;;14.70;99.90;;;;;;4979704;28;20029;-72
2023/04/19 12:28:54;;;;;;;1.00;0.90;;;14.60;99.90;;;;;;4979626;28;20030;-72
2023/04/19 12:31:20;;;;;;;0.10;0.10;;;14.60;99.90;;;;;;4961846;28;20149;-73
2023/04/19 12:33:46;;;;;;;0.20;0.20;;;15.00;99.90;;;;;;4979503;28;20547;-71
2023/04/19 12:36:12;;;;;;;4.30;3.95;;;15.20;99.90;;;;;;4979403;28;20026;-72
2023/04/19 12:38:38;;;;;;;0.10;0.10;;;15.30;99.90;;;;;;4962147;28;20035;-75
2023/04/19 12:41:04;;;;;;;0.20;0.20;;;15.20;99.90;;;;;;4979344;28;20029;-72
2023/04/19 12:43:30;;;;;;;0.13;0.13;;;15.30;99.90;;;;;;4979475;28;20097;-81
2023/04/19 12:45:57;;;;;;;0.63;0.63;;;16.00;99.90;;;;;;4961330;28;20022;-74
2023/04/19 12:48:23;;;;;;;0.10;0.10;;;15.80;99.90;;;;;;4979159;28;20030;-74
2023/04/19 12:50:49;;;;;;;0.10;0.10;;;15.90;99.90;;;;;;4962863;28;20026;-73
2023/04/19 12:53:15;;;;;;;0.10;0.10;;;16.10;99.90;;;;;;4980526;28;20110;-72
2023/04/19 12:55:46;;;;;;;0.30;0.30;;;16.20;99.90;;;;;;4980575;28;20022;-72
2023/04/19 12:58:16;;;;;;;0.10;0.10;;;16.50;99.90;;;;;;4982260;28;20030;-73